sensor_id;sensor_type;location;lat;lon;timestamp;pressure;altitude;pressure_sealevel;temperature;humidity
13734;BME280;43298;52.560;13.508;2023-02-12T00:00:45;102748.84;;;6.86;100.00
13734;BME280;43298;52.560;13.508;2023-02-12T00:03:11;102748.84;;;6.89;100.00
13734;BME280;43298;52.560;13.508;2023-02-12T00:05:38;102747.09;;;6.83;100.00
13734;BME280;43298;52.560;13.508;2023-02-12T00:08:04;102759.13;;;6.84;100.00
13734;BME280;43298;52.560;13.508;2023-02-12T00:10:30;102755.69;;;6.85;100.00
13734;BME280;43298;52.560;13.508;2023-02-12T00:12:56;102761.69;;;6.83;100.00
13734;BME280;43298;52.560;13.508;2023-02-12T00:15:22;102764.28;;;6.84;100.00
13734;BME280;43298;52.560;13.508;2023-02-12T00:17:48;102776.28;;;6.85;100.00
13734;BME280;43298;52.560;13.508;2023-02-12T00:20:14;102781.38;;;6.79;100.00
13734;BME280;43298;52.560;13.508;2023-02-12T00:22:39;102776.22;;;6.79;100.00
13734;BME280;43298;52.560;13.508;2023-02-12T00:25:06;102777.94;;;6.79;100.00
13734;BME280;43298;52.560;13.508;2023-02-12T00:27:33;102785.66;;;6.80;100.00
13734;BME280;43298;52.560;13.508;2023-02-12T00:30:00;102780.53;;;6.79;100.00
13734;BME280;43298;52.560;13.508;2023-02-12T00:32:26;102777.91;;;6.73;100.00
13734;BME280;43298;52.560;13.508;2023-02-12T00:34:51;102790.75;;;6.73;100.00
13734;BME280;43298;52.560;13.508;2023-02-12T00:37:17;102783.91;;;6.72;100.00
13734;BME280;43298;52.560;13.508;2023-02-12T00:39:43;102782.19;;;6.74;100.00
13734;BME280;43298;52.560;13.508;2023-02-12T00:42:09;102786.47;;;6.75;100.00
13734;BME280;43298;52.560;13.508;2023-02-12T00:44:35;102788.19;;;6.71;100.00
13734;BME280;43298;52.560;13.508;2023-02-12T00:47:01;102786.47;;;6.72;100.00
13734;BME280;43298;52.560;13.508;2023-02-12T00:49:31;102788.16;;;6.68;100.00
13734;BME280;43298;52.560;13.508;2023-02-12T00:52:02;102794.16;;;6.69;100.00
13734;BME280;43298;52.560;13.508;2023-02-12T00:54:30;102791.59;;;6.70;100.00
13734;BME280;43298;52.560;13.508;2023-02-12T00:56:56;102799.25;;;6.63;100.00
13734;BME280;43298;52.560;13.508;2023-02-12T00:59:23;102799.25;;;6.63;100.00
13734;BME280;43298;52.560;13.508;2023-02-12T01:01:50;102806.09;;;6.64;100.00
13734;BME280;43298;52.560;13.508;2023-02-12T01:04:16;102810.41;;;6.63;100.00
13734;BME280;43298;52.560;13.508;2023-02-12T01:06:43;102806.97;;;6.66;100.00
13734;BME280;43298;52.560;13.508;2023-02-12T01:09:09;102806.13;;;6.65;100.00
13734;BME280;43298;52.560;13.508;2023-02-12T01:11:35;102806.97;;;6.64;100.00
13734;BME280;43298;52.560;13.508;2023-02-12T01:14:01;102812.97;;;6.63;100.00
13734;BME280;43298;52.560;13.508;2023-02-12T01:16:27;102809.50;;;6.60;100.00
13734;BME280;43298;52.560;13.508;2023-02-12T01:18:54;102807.75;;;6.56;100.00
13734;BME280;43298;52.560;13.508;2023-02-12T01:21:27;102812.91;;;6.57;100.00
13734;BME280;43298;52.560;13.508;2023-02-12T01:23:54;102818.91;;;6.55;100.00
13734;BME280;43298;52.560;13.508;2023-02-12T01:26:21;102817.19;;;6.57;100.00
13734;BME280;43298;52.560;13.508;2023-02-12T01:28:54;102820.59;;;6.56;100.00
13734;BME280;43298;52.560;13.508;2023-02-12T01:31:27;102825.66;;;6.48;100.00
13734;BME280;43298;52.560;13.508;2023-02-12T01:33:56;102819.75;;;6.54;100.00
13734;BME280;43298;52.560;13.508;2023-02-12T01:36:23;102823.97;;;6.47;100.00
13734;BME280;43298;52.560;13.508;2023-02-12T01:38:49;102826.53;;;6.47;100.00
13734;BME280;43298;52.560;13.508;2023-02-12T01:41:22;102832.53;;;6.46;100.00
13734;BME280;43298;52.560;13.508;2023-02-12T01:44:30;102831.72;;;6.53;100.00
13734;BME280;43298;52.560;13.508;2023-02-12T01:47:02;102838.53;;;6.50;100.00
13734;BME280;43298;52.560;13.508;2023-02-12T01:49:39;102837.72;;;6.52;100.00
13734;BME280;43298;52.560;13.508;2023-02-12T01:52:14;102840.22;;;6.46;100.00
13734;BME280;43298;52.560;13.508;2023-02-12T01:54:41;102843.66;;;6.45;100.00
13734;BME280;43298;52.560;13.508;2023-02-12T01:57:08;102844.47;;;6.41;100.00
13734;BME280;43298;52.560;13.508;2023-02-12T01:59:36;102849.59;;;6.43;100.00
13734;BME280;43298;52.560;13.508;2023-02-12T02:02:04;102854.75;;;6.44;100.00
13734;BME280;43298;52.560;13.508;2023-02-12T02:04:38;102850.44;;;6.40;100.00
13734;BME280;43298;52.560;13.508;2023-02-12T02:07:06;102850.44;;;6.39;100.00
13734;BME280;43298;52.560;13.508;2023-02-12T02:09:35;102847.88;;;6.40;100.00
13734;BME280;43298;52.560;13.508;2023-02-12T02:12:03;102857.31;;;6.40;100.00
13734;BME280;43298;52.560;13.508;2023-02-12T02:14:48;102860.78;;;6.46;100.00
13734;BME280;43298;52.560;13.508;2023-02-12T02:29:44;102863.25;;;6.33;100.00
13734;BME280;43298;52.560;13.508;2023-02-12T02:32:23;102858.94;;;6.32;100.00
13734;BME280;43298;52.560;13.508;2023-02-12T02:35:22;102852.97;;;6.33;100.00
13734;BME280;43298;52.560;13.508;2023-02-12T02:38:18;102860.63;;;6.30;100.00
13734;BME280;43298;52.560;13.508;2023-02-12T02:41:07;102865.75;;;6.27;100.00
13734;BME280;43298;52.560;13.508;2023-02-12T02:43:51;102864.94;;;6.32;100.00
13734;BME280;43298;52.560;13.508;2023-02-12T02:46:33;102860.69;;;6.34;100.00
13734;BME280;43298;52.560;13.508;2023-02-12T02:49:06;102862.38;;;6.34;100.00
13734;BME280;43298;52.560;13.508;2023-02-12T02:51:40;102868.38;;;6.33;100.00
13734;BME280;43298;52.560;13.508;2023-02-12T02:56:39;102873.53;;;6.34;100.00
13734;BME280;43298;52.560;13.508;2023-02-12T02:59:12;102876.94;;;6.35;100.00
13734;BME280;43298;52.560;13.508;2023-02-12T03:02:02;102877.69;;;6.24;100.00
13734;BME280;43298;52.560;13.508;2023-02-12T03:04:34;102878.53;;;6.23;100.00
13734;BME280;43298;52.560;13.508;2023-02-12T03:07:28;102876.88;;;6.27;100.00
13734;BME280;43298;52.560;13.508;2023-02-12T03:12:43;102885.38;;;6.20;100.00
13734;BME280;43298;52.560;13.508;2023-02-12T03:15:31;102884.50;;;6.19;100.00
13734;BME280;43298;52.560;13.508;2023-02-12T03:18:02;102885.34;;;6.17;100.00
13734;BME280;43298;52.560;13.508;2023-02-12T03:20:42;102892.16;;;6.15;100.00
13734;BME280;43298;52.560;13.508;2023-02-12T03:23:16;102895.56;;;6.14;100.00
13734;BME280;43298;52.560;13.508;2023-02-12T03:26:04;102896.44;;;6.16;100.00
13734;BME280;43298;52.560;13.508;2023-02-12T03:28:35;102908.41;;;6.14;100.00
13734;BME280;43298;52.560;13.508;2023-02-12T03:34:11;102899.84;;;6.15;100.00
13734;BME280;43298;52.560;13.508;2023-02-12T03:36:58;102903.28;;;6.14;100.00
13734;BME280;43298;52.560;13.508;2023-02-12T03:39:51;102901.59;;;6.14;100.00
13734;BME280;43298;52.560;13.508;2023-02-12T03:48:27;102912.69;;;6.13;100.00
13734;BME280;43298;52.560;13.508;2023-02-12T03:53:45;102916.97;;;6.11;100.00
13734;BME280;43298;52.560;13.508;2023-02-12T03:56:26;102917.84;;;6.16;100.00
13734;BME280;43298;52.560;13.508;2023-02-12T03:58:53;102920.41;;;6.15;100.00
13734;BME280;43298;52.560;13.508;2023-02-12T04:01:19;102927.28;;;6.14;100.00
13734;BME280;43298;52.560;13.508;2023-02-12T04:03:45;102924.69;;;6.14;100.00
13734;BME280;43298;52.560;13.508;2023-02-12T04:06:27;102936.59;;;6.08;100.00
13734;BME280;43298;52.560;13.508;2023-02-12T04:09:01;102941.69;;;6.05;100.00
13734;BME280;43298;52.560;13.508;2023-02-12T04:17:58;102944.25;;;6.02;100.00
13734;BME280;43298;52.560;13.508;2023-02-12T04:20:51;102940.78;;;6.01;100.00
13734;BME280;43298;52.560;13.508;2023-02-12T04:26:09;102939.88;;;5.98;100.00
13734;BME280;43298;52.560;13.508;2023-02-12T04:28:55;102947.56;;;5.96;100.00
13734;BME280;43298;52.560;13.508;2023-02-12T04:31:43;102947.56;;;5.93;100.00
13734;BME280;43298;52.560;13.508;2023-02-12T04:37:25;102951.72;;;5.87;100.00
13734;BME280;43298;52.560;13.508;2023-02-12T04:39:53;102952.44;;;5.78;100.00
13734;BME280;43298;52.560;13.508;2023-02-12T04:42:19;102946.53;;;5.81;100.00
13734;BME280;43298;52.560;13.508;2023-02-12T04:44:45;102942.16;;;5.77;100.00
13734;BME280;43298;52.560;13.508;2023-02-12T04:47:13;102948.06;;;5.70;100.00
13734;BME280;43298;52.560;13.508;2023-02-12T04:49:39;102939.25;;;5.53;100.00
13734;BME280;43298;52.560;13.508;2023-02-12T04:52:06;102941.72;;;5.47;100.00
13734;BME280;43298;52.560;13.508;2023-02-12T04:54:32;102951.13;;;5.45;100.00
13734;BME280;43298;52.560;13.508;2023-02-12T04:56:58;102944.16;;;5.39;100.00
13734;BME280;43298;52.560;13.508;2023-02-12T04:59:24;102947.56;;;5.37;100.00
13734;BME280;43298;52.560;13.508;2023-02-12T05:01:50;102954.38;;;5.35;100.00
13734;BME280;43298;52.560;13.508;2023-02-12T05:04:17;102956.38;;;5.54;100.00
13734;BME280;43298;52.560;13.508;2023-02-12T05:06:44;102951.34;;;5.60;100.00
13734;BME280;43298;52.560;13.508;2023-02-12T05:09:17;102949.63;;;5.62;100.00
13734;BME280;43298;52.560;13.508;2023-02-12T05:11:44;102944.66;;;5.71;100.00
13734;BME280;43298;52.560;13.508;2023-02-12T05:14:10;102948.81;;;5.64;100.00
13734;BME280;43298;52.560;13.508;2023-02-12T05:16:36;102951.38;;;5.64;100.00
13734;BME280;43298;52.560;13.508;2023-02-12T05:19:02;102956.50;;;5.63;100.00
13734;BME280;43298;52.560;13.508;2023-02-12T05:21:28;102960.00;;;5.68;100.00
13734;BME280;43298;52.560;13.508;2023-02-12T05:23:54;102963.41;;;5.67;100.00
13734;BME280;43298;52.560;13.508;2023-02-12T05:26:21;102954.09;;;5.75;100.00
13734;BME280;43298;52.560;13.508;2023-02-12T05:28:47;102967.78;;;5.74;100.00
13734;BME280;43298;52.560;13.508;2023-02-12T05:31:16;102963.53;;;5.77;100.00
13734;BME280;43298;52.560;13.508;2023-02-12T05:33:44;102963.66;;;5.82;100.00
13734;BME280;43298;52.560;13.508;2023-02-12T05:36:15;102966.25;;;5.85;100.00
13734;BME280;43298;52.560;13.508;2023-02-12T05:38:42;102973.91;;;5.82;100.00
13734;BME280;43298;52.560;13.508;2023-02-12T05:41:17;102973.13;;;5.86;100.00
13734;BME280;43298;52.560;13.508;2023-02-12T05:43:44;102968.72;;;5.80;100.00
13734;BME280;43298;52.560;13.508;2023-02-12T05:46:10;102974.78;;;5.82;100.00
13734;BME280;43298;52.560;13.508;2023-02-12T05:48:37;102968.06;;;5.92;100.00
13734;BME280;43298;52.560;13.508;2023-02-12T05:51:14;102970.53;;;5.84;100.00
13734;BME280;43298;52.560;13.508;2023-02-12T05:53:41;102976.44;;;5.80;100.00
13734;BME280;43298;52.560;13.508;2023-02-12T05:56:26;102977.34;;;5.81;100.00
13734;BME280;43298;52.560;13.508;2023-02-12T05:59:02;102977.25;;;5.78;100.00
13734;BME280;43298;52.560;13.508;2023-02-12T06:01:36;102979.81;;;5.78;100.00
13734;BME280;43298;52.560;13.508;2023-02-12T06:04:05;102980.66;;;5.77;100.00
13734;BME280;43298;52.560;13.508;2023-02-12T06:06:32;102978.91;;;5.76;100.00
13734;BME280;43298;52.560;13.508;2023-02-12T06:08:59;102970.25;;;5.68;100.00
13734;BME280;43298;52.560;13.508;2023-02-12T06:11:25;102974.47;;;5.63;100.00
13734;BME280;43298;52.560;13.508;2023-02-12T06:13:51;102984.69;;;5.60;100.00
13734;BME280;43298;52.560;13.508;2023-02-12T06:18:44;102989.88;;;5.64;100.00
13734;BME280;43298;52.560;13.508;2023-02-12T06:21:10;102992.47;;;5.66;100.00
13734;BME280;43298;52.560;13.508;2023-02-12T06:23:35;102999.47;;;5.76;100.00
13734;BME280;43298;52.560;13.508;2023-02-12T06:26:01;103004.56;;;5.74;100.00
13734;BME280;43298;52.560;13.508;2023-02-12T06:28:27;103005.50;;;5.78;100.00
13734;BME280;43298;52.560;13.508;2023-02-12T06:30:53;103013.31;;;5.82;100.00
13734;BME280;43298;52.560;13.508;2023-02-12T06:33:19;103018.41;;;5.84;100.00
13734;BME280;43298;52.560;13.508;2023-02-12T06:35:45;103021.81;;;5.81;100.00
13734;BME280;43298;52.560;13.508;2023-02-12T06:38:11;103022.69;;;5.82;100.00
13734;BME280;43298;52.560;13.508;2023-02-12T06:40:36;103021.75;;;5.80;100.00
13734;BME280;43298;52.560;13.508;2023-02-12T06:43:02;103037.28;;;5.86;100.00
13734;BME280;43298;52.560;13.508;2023-02-12T06:45:28;103043.31;;;5.86;100.00
13734;BME280;43298;52.560;13.508;2023-02-12T06:47:54;103034.72;;;5.86;100.00
13734;BME280;43298;52.560;13.508;2023-02-12T06:50:20;103043.34;;;5.89;100.00
13734;BME280;43298;52.560;13.508;2023-02-12T06:52:45;103040.00;;;5.96;100.00
13734;BME280;43298;52.560;13.508;2023-02-12T06:55:11;103045.94;;;5.92;100.00
13734;BME280;43298;52.560;13.508;2023-02-12T06:57:37;103046.88;;;5.97;100.00
13734;BME280;43298;52.560;13.508;2023-02-12T07:00:04;103040.09;;;6.02;100.00
13734;BME280;43298;52.560;13.508;2023-02-12T07:02:30;103044.38;;;6.02;100.00
13734;BME280;43298;52.560;13.508;2023-02-12T07:04:55;103050.41;;;6.05;100.00
13734;BME280;43298;52.560;13.508;2023-02-12T07:07:21;103049.59;;;6.09;100.00
13734;BME280;43298;52.560;13.508;2023-02-12T07:09:47;103056.50;;;6.12;100.00
13734;BME280;43298;52.560;13.508;2023-02-12T07:12:13;103054.72;;;6.08;100.00
13734;BME280;43298;52.560;13.508;2023-02-12T07:14:39;103059.03;;;6.10;100.00
13734;BME280;43298;52.560;13.508;2023-02-12T07:17:05;103064.28;;;6.18;100.00
13734;BME280;43298;52.560;13.508;2023-02-12T07:19:32;103063.47;;;6.22;100.00
13734;BME280;43298;52.560;13.508;2023-02-12T07:21:58;103064.31;;;6.19;100.00
13734;BME280;43298;52.560;13.508;2023-02-12T07:24:24;103063.47;;;6.20;100.00
13734;BME280;43298;52.560;13.508;2023-02-12T07:26:49;103065.22;;;6.22;100.00
13734;BME280;43298;52.560;13.508;2023-02-12T07:29:15;103072.91;;;6.22;100.00
13734;BME280;43298;52.560;13.508;2023-02-12T07:31:42;103077.28;;;6.27;100.00
13734;BME280;43298;52.560;13.508;2023-02-12T07:34:09;103070.47;;;6.32;100.00
13734;BME280;43298;52.560;13.508;2023-02-12T07:36:35;103075.69;;;6.38;100.00
13734;BME280;43298;52.560;13.508;2023-02-12T07:39:02;103080.00;;;6.39;100.00
13734;BME280;43298;52.560;13.508;2023-02-12T07:41:32;103079.16;;;6.42;100.00
13734;BME280;43298;52.560;13.508;2023-02-12T07:44:01;103086.03;;;6.44;100.00
13734;BME280;43298;52.560;13.508;2023-02-12T07:46:31;103082.66;;;6.48;100.00
13734;BME280;43298;52.560;13.508;2023-02-12T07:49:00;103086.97;;;6.48;100.00
13734;BME280;43298;52.560;13.508;2023-02-12T07:51:27;103090.38;;;6.48;100.00
13734;BME280;43298;52.560;13.508;2023-02-12T07:53:53;103091.25;;;6.50;100.00
13734;BME280;43298;52.560;13.508;2023-02-12T07:56:25;103096.50;;;6.56;100.00
13734;BME280;43298;52.560;13.508;2023-02-12T07:59:01;103089.69;;;6.61;100.00
13734;BME280;43298;52.560;13.508;2023-02-12T08:01:34;103094.00;;;6.65;100.00
13734;BME280;43298;52.560;13.508;2023-02-12T08:04:04;103090.69;;;6.72;100.00
13734;BME280;43298;52.560;13.508;2023-02-12T08:06:34;103094.19;;;6.77;100.00
13734;BME280;43298;52.560;13.508;2023-02-12T08:09:03;103097.63;;;6.81;100.00
13734;BME280;43298;52.560;13.508;2023-02-12T08:11:29;103105.38;;;6.82;100.00
13734;BME280;43298;52.560;13.508;2023-02-12T08:13:58;103101.97;;;6.85;100.00
13734;BME280;43298;52.560;13.508;2023-02-12T08:16:26;103100.31;;;6.88;100.00
13734;BME280;43298;52.560;13.508;2023-02-12T08:18:53;103108.94;;;6.93;100.00
13734;BME280;43298;52.560;13.508;2023-02-12T08:21:23;103096.06;;;6.93;100.00
13734;BME280;43298;52.560;13.508;2023-02-12T08:23:50;103095.22;;;6.91;100.00
13734;BME280;43298;52.560;13.508;2023-02-12T08:26:18;103090.94;;;6.95;100.00
13734;BME280;43298;52.560;13.508;2023-02-12T08:28:48;103086.66;;;6.95;100.00
13734;BME280;43298;52.560;13.508;2023-02-12T08:31:19;103078.97;;;6.95;100.00
13734;BME280;43298;52.560;13.508;2023-02-12T08:33:47;103089.25;;;6.97;100.00
13734;BME280;43298;52.560;13.508;2023-02-12T08:36:23;103081.53;;;6.97;100.00
13734;BME280;43298;52.560;13.508;2023-02-12T08:38:49;103086.75;;;7.04;100.00
13734;BME280;43298;52.560;13.508;2023-02-12T08:41:21;103091.94;;;7.09;100.00
13734;BME280;43298;52.560;13.508;2023-02-12T08:43:49;103075.72;;;7.16;100.00
13734;BME280;43298;52.560;13.508;2023-02-12T08:46:24;103077.53;;;7.24;100.00
13734;BME280;43298;52.560;13.508;2023-02-12T08:49:00;103078.44;;;7.29;100.00
13734;BME280;43298;52.560;13.508;2023-02-12T08:51:32;103075.91;;;7.34;100.00
13734;BME280;43298;52.560;13.508;2023-02-12T08:54:01;103084.47;;;7.31;100.00
13734;BME280;43298;52.560;13.508;2023-02-12T08:56:29;103075.88;;;7.31;100.00
13734;BME280;43298;52.560;13.508;2023-02-12T08:59:00;103078.53;;;7.38;100.00
13734;BME280;43298;52.560;13.508;2023-02-12T09:01:29;103071.66;;;7.40;100.00
13734;BME280;43298;52.560;13.508;2023-02-12T09:03:55;103074.28;;;7.45;100.00
13734;BME280;43298;52.560;13.508;2023-02-12T09:06:23;103076.88;;;7.48;100.00
13734;BME280;43298;52.560;13.508;2023-02-12T09:08:52;103079.47;;;7.49;100.00
13734;BME280;43298;52.560;13.508;2023-02-12T09:11:22;103076.94;;;7.54;100.00
13734;BME280;43298;52.560;13.508;2023-02-12T09:14:03;103085.53;;;7.56;100.00
13734;BME280;43298;52.560;13.508;2023-02-12T09:16:32;103077.06;;;7.67;100.00
13734;BME280;43298;52.560;13.508;2023-02-12T09:18:58;103083.91;;;7.68;100.00
13734;BME280;43298;52.560;13.508;2023-02-12T09:21:24;103083.91;;;7.68;100.00
13734;BME280;43298;52.560;13.508;2023-02-12T09:23:50;103077.03;;;7.64;100.00
13734;BME280;43298;52.560;13.508;2023-02-12T09:26:19;103091.59;;;7.64;100.00
13734;BME280;43298;52.560;13.508;2023-02-12T09:28:46;103100.19;;;7.64;100.00
13734;BME280;43298;52.560;13.508;2023-02-12T09:31:20;103098.53;;;7.69;100.00
13734;BME280;43298;52.560;13.508;2023-02-12T09:33:48;103099.47;;;7.80;100.00
13734;BME280;43298;52.560;13.508;2023-02-12T09:36:15;103092.66;;;7.87;100.00
13734;BME280;43298;52.560;13.508;2023-02-12T09:38:42;103087.53;;;7.96;100.00
13734;BME280;43298;52.560;13.508;2023-02-12T09:41:18;103092.72;;;7.99;100.00
13734;BME280;43298;52.560;13.508;2023-02-12T09:51:52;103092.78;;;8.08;100.00
13734;BME280;43298;52.560;13.508;2023-02-12T09:54:23;103091.13;;;8.17;100.00
13734;BME280;43298;52.560;13.508;2023-02-12T09:56:59;103091.97;;;8.15;100.00
13734;BME280;43298;52.560;13.508;2023-02-12T09:59:42;103085.97;;;8.17;100.00
13734;BME280;43298;52.560;13.508;2023-02-12T10:02:18;103095.41;;;8.15;100.00
13734;BME280;43298;52.560;13.508;2023-02-12T10:04:46;103084.25;;;8.15;100.00
13734;BME280;43298;52.560;13.508;2023-02-12T10:10:27;103091.97;;;8.15;100.00
13734;BME280;43298;52.560;13.508;2023-02-12T10:13:30;103092.84;;;8.20;100.00
13734;BME280;43298;52.560;13.508;2023-02-12T10:16:13;103094.53;;;8.10;100.00
13734;BME280;43298;52.560;13.508;2023-02-12T10:24:42;103098.66;;;7.90;100.00
13734;BME280;43298;52.560;13.508;2023-02-12T10:27:21;103098.72;;;7.95;100.00
13734;BME280;43298;52.560;13.508;2023-02-12T10:29:48;103097.00;;;7.94;100.00
13734;BME280;43298;52.560;13.508;2023-02-12T10:32:24;103096.97;;;7.91;100.00
13734;BME280;43298;52.560;13.508;2023-02-12T10:34:53;103095.31;;;8.02;100.00
13734;BME280;43298;52.560;13.508;2023-02-12T10:37:56;103100.59;;;8.20;100.00
13734;BME280;43298;52.560;13.508;2023-02-12T10:40:31;103095.63;;;8.45;100.00
13734;BME280;43298;52.560;13.508;2023-02-12T10:43:00;103100.81;;;8.57;100.00
13734;BME280;43298;52.560;13.508;2023-02-12T10:45:33;103099.97;;;8.58;100.00
13734;BME280;43298;52.560;13.508;2023-02-12T10:48:25;103094.78;;;8.51;100.00
13734;BME280;43298;52.560;13.508;2023-02-12T10:53:36;103093.81;;;8.31;100.00
13734;BME280;43298;52.560;13.508;2023-02-12T10:56:19;103096.25;;;8.13;100.00
13734;BME280;43298;52.560;13.508;2023-02-12T11:01:33;103097.03;;;8.03;100.00
13734;BME280;43298;52.560;13.508;2023-02-12T11:07:02;103097.13;;;8.13;100.00
13734;BME280;43298;52.560;13.508;2023-02-12T11:09:47;103097.09;;;8.12;100.00
13734;BME280;43298;52.560;13.508;2023-02-12T11:12:38;103097.09;;;8.12;100.00
13734;BME280;43298;52.560;13.508;2023-02-12T11:15:19;103102.19;;;7.98;100.00
13734;BME280;43298;52.560;13.508;2023-02-12T11:18:02;103102.09;;;7.88;100.00
13734;BME280;43298;52.560;13.508;2023-02-12T11:20:40;103105.53;;;7.87;100.00
13734;BME280;43298;52.560;13.508;2023-02-12T11:23:38;103102.06;;;7.80;100.00
13734;BME280;43298;52.560;13.508;2023-02-12T11:28:56;103103.78;;;7.81;100.00
13734;BME280;43298;52.560;13.508;2023-02-12T11:31:30;103104.59;;;7.77;100.00
13734;BME280;43298;52.560;13.508;2023-02-12T11:36:49;103103.72;;;7.75;100.00
13734;BME280;43298;52.560;13.508;2023-02-12T11:44:33;103104.53;;;7.70;100.00
13734;BME280;43298;52.560;13.508;2023-02-12T11:47:05;103105.41;;;7.70;100.00
13734;BME280;43298;52.560;13.508;2023-02-12T11:49:47;103105.44;;;7.75;100.00
13734;BME280;43298;52.560;13.508;2023-02-12T11:52:27;103101.19;;;7.80;100.00
13734;BME280;43298;52.560;13.508;2023-02-12T11:55:01;103098.63;;;7.81;100.00
13734;BME280;43298;52.560;13.508;2023-02-12T11:57:49;103097.88;;;7.99;100.00
13734;BME280;43298;52.560;13.508;2023-02-12T12:00:37;103093.63;;;8.02;100.00
13734;BME280;43298;52.560;13.508;2023-02-12T12:05:50;103094.59;;;8.18;100.00
13734;BME280;43298;52.560;13.508;2023-02-12T12:08:28;103092.94;;;8.27;100.00
13734;BME280;43298;52.560;13.508;2023-02-12T12:13:53;103078.31;;;8.28;100.00
13734;BME280;43298;52.560;13.508;2023-02-12T12:16:33;103084.31;;;8.22;100.00
13734;BME280;43298;52.560;13.508;2023-02-12T12:19:55;103072.19;;;8.09;100.00
13734;BME280;43298;52.560;13.508;2023-02-12T12:22:59;103082.41;;;7.94;100.00
13734;BME280;43298;52.560;13.508;2023-02-12T12:25:47;103078.94;;;7.91;100.00
13734;BME280;43298;52.560;13.508;2023-02-12T12:31:26;103060.97;;;8.04;100.00
13734;BME280;43298;52.560;13.508;2023-02-12T12:39:53;103049.13;;;8.27;100.00
13734;BME280;43298;52.560;13.508;2023-02-12T13:05:45;103039.88;;;8.86;100.00
13734;BME280;43298;52.560;13.508;2023-02-12T13:23:14;103034.72;;;8.89;100.00
13734;BME280;43298;52.560;13.508;2023-02-12T13:25:55;103037.34;;;9.03;100.00
13734;BME280;43298;52.560;13.508;2023-02-12T13:28:36;103041.63;;;9.02;100.00
13734;BME280;43298;52.560;13.508;2023-02-12T13:31:09;103039.06;;;9.04;100.00
13734;BME280;43298;52.560;13.508;2023-02-12T13:33:53;103044.25;;;9.10;100.00
13734;BME280;43298;52.560;13.508;2023-02-12T13:36:20;103041.66;;;9.10;100.00
13734;BME280;43298;52.560;13.508;2023-02-12T13:41:24;103037.31;;;8.95;100.00
13734;BME280;43298;52.560;13.508;2023-02-12T13:47:02;103030.44;;;9.64;100.00
13734;BME280;43298;52.560;13.508;2023-02-12T13:53:06;103033.00;;;10.06;100.00
13734;BME280;43298;52.560;13.508;2023-02-12T13:55:39;103035.53;;;10.13;100.00
13734;BME280;43298;52.560;13.508;2023-02-12T14:04:46;103058.84;;;9.80;100.00
13734;BME280;43298;52.560;13.508;2023-02-12T14:07:20;103056.28;;;9.65;100.00
13734;BME280;43298;52.560;13.508;2023-02-12T14:15:36;103060.59;;;9.41;100.00
13734;BME280;43298;52.560;13.508;2023-02-12T14:18:40;103058.00;;;9.28;100.00
13734;BME280;43298;52.560;13.508;2023-02-12T14:23:39;103053.69;;;9.26;100.00
13734;BME280;43298;52.560;13.508;2023-02-12T14:26:20;103047.69;;;9.33;100.00
13734;BME280;43298;52.560;13.508;2023-02-12T14:29:01;103057.16;;;9.37;100.00
13734;BME280;43298;52.560;13.508;2023-02-12T14:31:32;103062.31;;;9.37;100.00
13734;BME280;43298;52.560;13.508;2023-02-12T14:39:27;103051.13;;;9.34;100.00
13734;BME280;43298;52.560;13.508;2023-02-12T14:44:54;103048.53;;;9.37;100.00
13734;BME280;43298;52.560;13.508;2023-02-12T14:49:53;103053.72;;;9.27;100.00
13734;BME280;43298;52.560;13.508;2023-02-12T14:52:27;103062.31;;;9.23;100.00
13734;BME280;43298;52.560;13.508;2023-02-12T14:55:27;103052.84;;;9.21;100.00
13734;BME280;43298;52.560;13.508;2023-02-12T14:57:58;103046.81;;;9.20;100.00
13734;BME280;43298;52.560;13.508;2023-02-12T15:00:38;103040.78;;;9.18;100.00
13734;BME280;43298;52.560;13.508;2023-02-12T15:06:03;103045.97;;;9.15;100.00
13734;BME280;43298;52.560;13.508;2023-02-12T15:11:46;103050.25;;;9.13;100.00
13734;BME280;43298;52.560;13.508;2023-02-12T15:14:39;103053.69;;;9.09;100.00
13734;BME280;43298;52.560;13.508;2023-02-12T15:17:21;103051.09;;;9.09;100.00
13734;BME280;43298;52.560;13.508;2023-02-12T15:22:40;103053.69;;;9.06;100.00
13734;BME280;43298;52.560;13.508;2023-02-12T15:25:29;103050.22;;;9.07;100.00
13734;BME280;43298;52.560;13.508;2023-02-12T15:28:20;103048.50;;;9.03;100.00
13734;BME280;43298;52.560;13.508;2023-02-12T15:30:49;103053.66;;;9.00;100.00
13734;BME280;43298;52.560;13.508;2023-02-12T15:33:30;103052.81;;;8.98;100.00
13734;BME280;43298;52.560;13.508;2023-02-12T15:35:58;103057.97;;;9.00;100.00
13734;BME280;43298;52.560;13.508;2023-02-12T15:38:42;103065.72;;;8.97;100.00
13734;BME280;43298;52.560;13.508;2023-02-12T15:41:21;103063.13;;;8.95;100.00
13734;BME280;43298;52.560;13.508;2023-02-12T15:43:47;103065.69;;;8.92;100.00
13734;BME280;43298;52.560;13.508;2023-02-12T15:46:16;103063.97;;;8.91;100.00
13734;BME280;43298;52.560;13.508;2023-02-12T15:48:43;103060.50;;;8.89;100.00
13734;BME280;43298;52.560;13.508;2023-02-12T15:51:23;103059.69;;;8.90;100.00
13734;BME280;43298;52.560;13.508;2023-02-12T15:53:51;103062.25;;;8.92;100.00
13734;BME280;43298;52.560;13.508;2023-02-12T15:56:23;103064.00;;;8.94;100.00
13734;BME280;43298;52.560;13.508;2023-02-12T15:58:51;103063.13;;;8.94;100.00
13734;BME280;43298;52.560;13.508;2023-02-12T16:01:31;103064.81;;;8.92;100.00
13734;BME280;43298;52.560;13.508;2023-02-12T16:06:28;103074.28;;;8.91;100.00